Terminal Aerodrome Forecast
Issued by NWS Charleston, WV

Current Version | Previous Version | Text Only | Print | Product List | Glossary Off
Versions: 1 2 3 4 5 6 7 8 9 10 11 12 13 14 15 16 17 18 19 20 21 22 23

175
FTUS41 KRLX 180907 AAA
TAFCRW
TAF AMD
KCRW 180907Z 1809/1906 28007KT P6SM OVC015
     FM181400 30004KT P6SM BKN020
     FM181600 14005KT P6SM SCT035
     FM182000 12003KT P6SM FEW200=

USA.gov is the U.S. government's official web portal to all federal, state and local government web resources and services.